Time,TemperatureF,DewpointF,PressureIn,WindDirection,WindDirectionDegrees,WindSpeedMPH,WindSpeedGustMPH,Humidity,HourlyPrecipIn,Conditions,Clouds,dailyrainin,SoftwareType,DateUTC
2013-01-09 00:00:00,38.1,31.8,29.98,SW,225,9.0,14.0,78,0.00,,,0.02,Wunderground v.1.15,2013-01-09 06:00:00,
2013-01-09 00:05:00,38.2,31.9,29.98,WSW,250,10.0,12.0,78,0.00,,,0.00,Wunderground v.1.15,2013-01-09 06:05:00,
2013-01-09 00:10:00,38.3,32.0,29.98,SW,236,8.0,8.0,78,0.00,,,0.00,Wunderground v.1.15,2013-01-09 06:10:00,
2013-01-09 00:15:00,38.3,32.0,29.98,SW,229,4.0,11.0,78,0.00,,,0.00,Wunderground v.1.15,2013-01-09 06:15:00,
2013-01-09 00:20:00,38.1,31.8,29.98,WSW,249,9.0,9.0,78,0.00,,,0.00,Wunderground v.1.15,2013-01-09 06:20:00,
2013-01-09 00:25:00,38.0,31.7,29.97,SSW,198,9.0,12.0,78,0.00,,,0.00,Wunderground v.1.15,2013-01-09 06:25:00,
2013-01-09 00:30:00,38.0,32.1,29.97,West,262,7.0,9.0,79,0.00,,,0.00,Wunderground v.1.15,2013-01-09 06:30:00,
2013-01-09 00:35:00,38.0,32.1,29.97,SW,221,5.0,10.0,79,0.00,,,0.00,Wunderground v.1.15,2013-01-09 06:35:00,
2013-01-09 00:40:00,37.9,32.0,29.96,WSW,248,7.0,7.0,79,0.00,,,0.00,Wunderground v.1.15,2013-01-09 06:40:00,
2013-01-09 00:46:00,38.1,32.2,29.96,WSW,246,6.0,17.0,79,0.00,,,0.00,Wunderground v.1.15,2013-01-09 06:46:00,
2013-01-09 00:51:00,38.2,31.9,29.96,SW,219,4.0,8.0,78,0.00,,,0.00,Wunderground v.1.15,2013-01-09 06:51:00,
2013-01-09 00:56:00,38.4,32.1,29.96,WSW,244,10.0,10.0,78,0.00,,,0.00,Wunderground v.1.15,2013-01-09 06:56:00,
2013-01-09 01:01:00,38.7,32.1,29.96,West,279,3.0,8.0,77,0.00,,,0.00,Wunderground v.1.15,2013-01-09 07:01:00,
2013-01-09 01:06:00,38.8,32.2,29.96,SSW,209,4.0,8.0,77,0.00,,,0.00,Wunderground v.1.15,2013-01-09 07:06:00,
2013-01-09 01:12:00,39.1,32.5,29.96,WSW,238,5.0,6.0,77,0.00,,,0.00,Wunderground v.1.15,2013-01-09 07:12:00,
2013-01-09 01:18:00,39.2,32.3,29.96,West,272,12.0,16.0,76,0.00,,,0.00,Wunderground v.1.15,2013-01-09 07:18:00,
2013-01-09 01:23:00,39.3,32.4,29.96,WNW,300,5.0,11.0,76,0.00,,,0.00,Wunderground v.1.15,2013-01-09 07:23:00,
2013-01-09 01:28:00,39.2,32.6,29.97,West,259,7.0,11.0,77,0.00,,,0.00,Wunderground v.1.15,2013-01-09 07:28:00,
2013-01-09 01:34:00,39.1,32.5,29.96,West,264,2.0,13.0,77,0.00,,,0.00,Wunderground v.1.15,2013-01-09 07:34:00,
2013-01-09 01:40:00,39.0,32.4,29.97,SW,219,1.0,13.0,77,0.00,,,0.00,Wunderground v.1.15,2013-01-09 07:40:00,
2013-01-09 01:45:00,38.9,32.6,29.97,West,273,6.0,11.0,78,0.00,,,0.00,Wunderground v.1.15,2013-01-09 07:45:00,
2013-01-09 01:50:00,39.0,32.7,29.98,ENE,57,4.0,13.0,78,0.00,,,0.00,Wunderground v.1.15,2013-01-09 07:50:00,
2013-01-09 01:56:00,38.9,32.6,29.98,West,269,10.0,10.0,78,0.00,,,0.00,Wunderground v.1.15,2013-01-09 07:56:00,
2013-01-09 02:01:00,39.0,32.7,29.98,SW,232,4.0,5.0,78,0.00,,,0.00,Wunderground v.1.15,2013-01-09 08:01:00,
2013-01-09 02:06:00,39.0,32.7,29.98,West,277,3.0,12.0,78,0.00,,,0.00,Wunderground v.1.15,2013-01-09 08:06:00,
2013-01-09 02:11:00,38.9,32.6,29.99,SSE,153,6.0,6.0,78,0.00,,,0.00,Wunderground v.1.15,2013-01-09 08:11:00,
2013-01-09 02:17:00,38.9,32.6,29.99,WNW,287,3.0,7.0,78,0.00,,,0.00,Wunderground v.1.15,2013-01-09 08:17:00,
2013-01-09 02:22:00,38.8,32.8,29.99,WNW,294,5.0,10.0,79,0.00,,,0.00,Wunderground v.1.15,2013-01-09 08:22:00,
2013-01-09 02:27:00,38.6,32.6,29.99,NNW,338,5.0,10.0,79,0.00,,,0.00,Wunderground v.1.15,2013-01-09 08:27:00,
2013-01-09 02:32:00,38.4,32.5,29.99,NNE,33,2.0,9.0,79,0.00,,,0.00,Wunderground v.1.15,2013-01-09 08:32:00,
2013-01-09 02:37:00,38.4,32.5,30.00,WSW,239,5.0,13.0,79,0.00,,,0.00,Wunderground v.1.15,2013-01-09 08:37:00,
2013-01-09 02:42:00,38.2,32.3,30.00,NW,306,3.0,6.0,79,0.00,,,0.00,Wunderground v.1.15,2013-01-09 08:42:00,
2013-01-09 02:47:00,37.9,32.3,30.00,SW,225,3.0,11.0,80,0.00,,,0.00,Wunderground v.1.15,2013-01-09 08:47:00,
2013-01-09 02:53:00,37.7,32.4,30.00,West,269,3.0,7.0,81,0.00,,,0.00,Wunderground v.1.15,2013-01-09 08:53:00,
2013-01-09 02:58:00,37.5,32.2,30.00,WNW,296,5.0,7.0,81,0.00,,,0.00,Wunderground v.1.15,2013-01-09 08:58:00,
2013-01-09 03:03:00,37.3,32.0,30.00,WNW,300,5.0,9.0,81,0.00,,,0.00,Wunderground v.1.15,2013-01-09 09:03:00,
2013-01-09 03:08:00,37.1,32.1,30.01,WNW,290,2.0,9.0,82,0.00,,,0.00,Wunderground v.1.15,2013-01-09 09:08:00,
2013-01-09 03:13:00,37.0,32.0,30.00,NNW,339,3.0,9.0,82,0.00,,,0.00,Wunderground v.1.15,2013-01-09 09:13:00,
2013-01-09 03:18:00,36.8,31.8,30.00,NNW,329,2.0,9.0,82,0.00,,,0.00,Wunderground v.1.15,2013-01-09 09:18:00,
2013-01-09 03:23:00,36.7,32.0,30.00,WNW,288,3.0,11.0,83,0.00,,,0.00,Wunderground v.1.15,2013-01-09 09:23:00,
2013-01-09 03:28:00,36.6,31.9,30.00,SW,224,4.0,11.0,83,0.00,,,0.00,Wunderground v.1.15,2013-01-09 09:28:00,
2013-01-09 03:33:00,36.4,31.7,30.01,NW,317,10.0,12.0,83,0.00,,,0.00,Wunderground v.1.15,2013-01-09 09:33:00,
2013-01-09 03:38:00,36.2,31.5,30.01,West,260,1.0,13.0,83,0.00,,,0.00,Wunderground v.1.15,2013-01-09 09:38:00,
2013-01-09 03:43:00,36.1,31.7,30.02,NW,307,2.0,9.0,84,0.00,,,0.00,Wunderground v.1.15,2013-01-09 09:43:00,
2013-01-09 03:48:00,36.0,31.6,30.02,WNW,299,4.0,9.0,84,0.00,,,0.00,Wunderground v.1.15,2013-01-09 09:48:00,
2013-01-09 03:53:00,35.8,31.4,30.03,West,281,5.0,7.0,84,0.00,,,0.00,Wunderground v.1.15,2013-01-09 09:53:00,
2013-01-09 03:59:00,35.7,31.3,30.03,West,265,2.0,7.0,84,0.00,,,0.00,Wunderground v.1.15,2013-01-09 09:59:00,
2013-01-09 04:04:00,35.5,31.1,30.03,NW,311,4.0,6.0,84,0.00,,,0.00,Wunderground v.1.15,2013-01-09 10:04:00,
2013-01-09 04:09:00,35.4,31.3,30.04,WNW,295,4.0,7.0,85,0.00,,,0.00,Wunderground v.1.15,2013-01-09 10:09:00,
2013-01-09 04:15:00,35.4,31.3,30.04,NW,321,3.0,12.0,85,0.00,,,0.00,Wunderground v.1.15,2013-01-09 10:15:00,
2013-01-09 04:20:00,35.2,31.1,30.05,NW,316,3.0,3.0,85,0.00,,,0.00,Wunderground v.1.15,2013-01-09 10:20:00,
2013-01-09 04:25:00,35.1,31.0,30.05,WSW,239,9.0,11.0,85,0.00,,,0.00,Wunderground v.1.15,2013-01-09 10:25:00,
2013-01-09 04:30:00,35.0,30.9,30.04,WNW,288,2.0,4.0,85,0.00,,,0.00,Wunderground v.1.15,2013-01-09 10:30:00,
2013-01-09 04:35:00,34.8,30.8,30.05,WNW,288,5.0,6.0,85,0.00,,,0.00,Wunderground v.1.15,2013-01-09 10:35:00,
2013-01-09 04:40:00,34.7,30.7,30.05,WNW,293,4.0,5.0,85,0.00,,,0.00,Wunderground v.1.15,2013-01-09 10:40:00,
2013-01-09 04:45:00,34.6,30.6,30.05,WNW,297,5.0,10.0,85,0.00,,,0.00,Wunderground v.1.15,2013-01-09 10:45:00,
2013-01-09 04:50:00,34.4,30.4,30.06,NW,307,6.0,7.0,85,0.00,,,0.00,Wunderground v.1.15,2013-01-09 10:50:00,
2013-01-09 04:55:00,34.2,30.2,30.07,WNW,283,3.0,10.0,85,0.00,,,0.00,Wunderground v.1.15,2013-01-09 10:55:00,
2013-01-09 05:01:00,34.1,30.1,30.07,West,274,7.0,7.0,85,0.00,,,0.00,Wunderground v.1.15,2013-01-09 11:01:00,
2013-01-09 05:06:00,34.0,30.3,30.08,WNW,290,4.0,11.0,86,0.00,,,0.00,Wunderground v.1.15,2013-01-09 11:06:00,
2013-01-09 05:11:00,33.9,30.2,30.08,NNW,341,4.0,12.0,86,0.00,,,0.00,Wunderground v.1.15,2013-01-09 11:11:00,
2013-01-09 05:16:00,33.7,30.0,30.08,SSW,192,1.0,12.0,86,0.00,,,0.00,Wunderground v.1.15,2013-01-09 11:16:00,
2013-01-09 05:21:00,33.5,29.8,30.08,NW,307,10.0,11.0,86,0.00,,,0.00,Wunderground v.1.15,2013-01-09 11:21:00,
2013-01-09 05:26:00,33.5,29.8,30.08,WNW,296,6.0,11.0,86,0.00,,,0.00,Wunderground v.1.15,2013-01-09 11:26:00,
2013-01-09 05:31:00,33.4,29.7,30.09,NW,317,6.0,6.0,86,0.00,,,0.00,Wunderground v.1.15,2013-01-09 11:31:00,
2013-01-09 05:36:00,33.2,29.5,30.09,NW,314,2.0,7.0,86,0.00,,,0.00,Wunderground v.1.15,2013-01-09 11:36:00,
2013-01-09 05:41:00,33.0,29.3,30.09,WSW,254,0.0,3.0,86,0.00,,,0.00,Wunderground v.1.15,2013-01-09 11:41:00,
2013-01-09 05:46:00,32.8,29.1,30.09,NW,317,4.0,5.0,86,0.00,,,0.00,Wunderground v.1.15,2013-01-09 11:46:00,
2013-01-09 05:51:00,32.7,29.0,30.09,WNW,286,1.0,10.0,86,0.00,,,0.00,Wunderground v.1.15,2013-01-09 11:51:00,
2013-01-09 05:57:00,31.9,28.2,30.09,SW,222,1.0,10.0,86,0.00,,,0.00,Wunderground v.1.15,2013-01-09 11:57:00,
2013-01-09 06:02:00,31.8,28.1,30.10,WSW,242,5.0,7.0,86,0.00,,,0.00,Wunderground v.1.15,2013-01-09 12:02:00,
2013-01-09 06:07:00,31.7,28.0,30.09,SW,218,5.0,7.0,86,0.00,,,0.00,Wunderground v.1.15,2013-01-09 12:07:00,
2013-01-09 06:12:00,31.6,27.9,30.10,SW,220,5.0,8.0,86,0.00,,,0.00,Wunderground v.1.15,2013-01-09 12:12:00,
2013-01-09 06:18:00,31.5,27.8,30.10,SW,234,10.0,10.0,86,0.00,,,0.00,Wunderground v.1.15,2013-01-09 12:18:00,
2013-01-09 06:23:00,31.4,27.7,30.10,SW,232,9.0,11.0,86,0.00,,,0.00,Wunderground v.1.15,2013-01-09 12:23:00,
2013-01-09 06:28:00,31.3,27.6,30.11,SW,224,4.0,11.0,86,0.00,,,0.00,Wunderground v.1.15,2013-01-09 12:28:00,
2013-01-09 06:33:00,31.3,27.6,30.12,SW,234,0.0,6.0,86,0.00,,,0.00,Wunderground v.1.15,2013-01-09 12:33:00,
2013-01-09 06:39:00,31.2,27.8,30.12,WSW,250,2.0,6.0,87,0.00,,,0.00,Wunderground v.1.15,2013-01-09 12:39:00,
2013-01-09 06:44:00,31.1,27.4,30.12,West,271,3.0,7.0,86,0.00,,,0.00,Wunderground v.1.15,2013-01-09 12:44:00,
2013-01-09 06:49:00,31.0,27.3,30.13,WSW,250,0.0,7.0,86,0.00,,,0.00,Wunderground v.1.15,2013-01-09 12:49:00,
2013-01-09 06:54:00,30.8,27.4,30.13,SW,229,4.0,4.0,87,0.00,,,0.00,Wunderground v.1.15,2013-01-09 12:54:00,
2013-01-09 06:59:00,30.7,27.3,30.13,SW,229,0.0,5.0,87,0.00,,,0.00,Wunderground v.1.15,2013-01-09 12:59:00,
2013-01-09 07:04:00,30.6,27.2,30.13,WSW,256,2.0,2.0,87,0.00,,,0.00,Wunderground v.1.15,2013-01-09 13:04:00,
2013-01-09 07:10:00,30.6,27.2,30.13,SW,227,3.0,3.0,87,0.00,,,0.00,Wunderground v.1.15,2013-01-09 13:10:00,
2013-01-09 07:15:00,30.6,27.2,30.13,SW,226,0.0,4.0,87,0.00,,,0.00,Wunderground v.1.15,2013-01-09 13:15:00,
2013-01-09 07:20:00,30.5,27.1,30.14,SW,226,0.0,0.0,87,0.00,,,0.00,Wunderground v.1.15,2013-01-09 13:20:00,
2013-01-09 07:25:00,30.3,26.9,30.14,SW,226,0.0,3.0,87,0.00,,,0.00,Wunderground v.1.15,2013-01-09 13:25:00,
2013-01-09 07:30:00,30.2,26.8,30.14,SW,226,1.0,1.0,87,0.00,,,0.00,Wunderground v.1.15,2013-01-09 13:30:00,
2013-01-09 07:35:00,30.3,26.9,30.14,SW,223,0.0,4.0,87,0.00,,,0.00,Wunderground v.1.15,2013-01-09 13:35:00,
2013-01-09 07:41:00,30.4,27.0,30.14,SW,219,4.0,4.0,87,0.00,,,0.00,Wunderground v.1.15,2013-01-09 13:41:00,
2013-01-09 07:46:00,30.5,26.8,30.14,SW,218,0.0,4.0,86,0.00,,,0.00,Wunderground v.1.15,2013-01-09 13:46:00,
2013-01-09 07:51:00,30.6,26.9,30.15,SW,221,0.0,2.0,86,0.00,,,0.00,Wunderground v.1.15,2013-01-09 13:51:00,
2013-01-09 07:56:00,30.9,27.2,30.15,SW,221,3.0,5.0,86,0.00,,,0.00,Wunderground v.1.15,2013-01-09 13:56:00,
2013-01-09 08:01:00,31.1,27.1,30.15,SW,227,2.0,3.0,85,0.00,,,0.00,Wunderground v.1.15,2013-01-09 14:01:00,
2013-01-09 08:06:00,31.2,27.2,30.16,WSW,245,4.0,11.0,85,0.00,,,0.00,Wunderground v.1.15,2013-01-09 14:06:00,
2013-01-09 08:11:00,31.3,27.0,30.16,WSW,238,4.0,4.0,84,0.00,,,0.00,Wunderground v.1.15,2013-01-09 14:11:00,
2013-01-09 08:17:00,31.5,27.2,30.16,SW,236,7.0,10.0,84,0.00,,,0.00,Wunderground v.1.15,2013-01-09 14:17:00,
2013-01-09 08:22:00,31.6,27.3,30.16,SW,227,9.0,13.0,84,0.00,,,0.00,Wunderground v.1.15,2013-01-09 14:22:00,
2013-01-09 08:27:00,31.8,27.2,30.16,SW,219,5.0,13.0,83,0.00,,,0.00,Wunderground v.1.15,2013-01-09 14:27:00,
2013-01-09 08:32:00,31.9,27.3,30.17,SW,218,14.0,14.0,83,0.00,,,0.00,Wunderground v.1.15,2013-01-09 14:32:00,
2013-01-09 08:37:00,32.0,27.4,30.17,SW,217,6.0,16.0,83,0.00,,,0.00,Wunderground v.1.15,2013-01-09 14:37:00,
2013-01-09 08:42:00,32.0,27.4,30.17,SW,226,8.0,11.0,83,0.00,,,0.00,Wunderground v.1.15,2013-01-09 14:42:00,
2013-01-09 08:47:00,32.3,27.7,30.16,WSW,240,6.0,14.0,83,0.00,,,0.00,Wunderground v.1.15,2013-01-09 14:47:00,
2013-01-09 08:52:00,32.8,27.9,30.16,WSW,252,3.0,7.0,82,0.00,,,0.00,Wunderground v.1.15,2013-01-09 14:52:00,
2013-01-09 08:57:00,33.2,28.0,30.16,WSW,241,1.0,9.0,81,0.00,,,0.00,Wunderground v.1.15,2013-01-09 14:57:00,
2013-01-09 09:02:00,33.8,28.3,30.16,WSW,254,5.0,6.0,80,0.00,,,0.00,Wunderground v.1.15,2013-01-09 15:02:00,
2013-01-09 09:07:00,34.4,28.6,30.16,West,266,4.0,15.0,79,0.00,,,0.00,Wunderground v.1.15,2013-01-09 15:07:00,
2013-01-09 09:12:00,34.9,28.4,30.17,WSW,240,4.0,11.0,77,0.00,,,0.00,Wunderground v.1.15,2013-01-09 15:12:00,
2013-01-09 09:17:00,35.5,29.0,30.17,West,269,5.0,11.0,77,0.00,,,0.00,Wunderground v.1.15,2013-01-09 15:17:00,
2013-01-09 09:22:00,35.9,28.7,30.17,West,263,4.0,6.0,75,0.00,,,0.00,Wunderground v.1.15,2013-01-09 15:22:00,
2013-01-09 09:28:00,36.3,28.8,30.17,West,275,3.0,13.0,74,0.00,,,0.00,Wunderground v.1.15,2013-01-09 15:28:00,
2013-01-09 09:34:00,36.6,28.4,30.18,West,261,7.0,12.0,72,0.00,,,0.00,Wunderground v.1.15,2013-01-09 15:34:00,
2013-01-09 09:39:00,36.9,28.7,30.19,WSW,240,3.0,12.0,72,0.00,,,0.00,Wunderground v.1.15,2013-01-09 15:39:00,
2013-01-09 09:45:00,37.0,28.5,30.19,West,268,4.0,14.0,71,0.00,,,0.00,Wunderground v.1.15,2013-01-09 15:45:00,
2013-01-09 09:50:00,37.1,28.2,30.19,WNW,290,9.0,14.0,70,0.00,,,0.00,Wunderground v.1.15,2013-01-09 15:50:00,
2013-01-09 09:55:00,37.2,28.3,30.19,WSW,241,6.0,13.0,70,0.00,,,0.00,Wunderground v.1.15,2013-01-09 15:55:00,
2013-01-09 10:00:00,37.4,28.5,30.20,WSW,257,6.0,13.0,70,0.00,,,0.00,Wunderground v.1.15,2013-01-09 16:00:00,
2013-01-09 10:05:00,37.5,28.2,30.19,WNW,285,7.0,17.0,69,0.00,,,0.00,Wunderground v.1.15,2013-01-09 16:05:00,
2013-01-09 10:10:00,37.5,27.9,30.19,West,272,10.0,17.0,68,0.00,,,0.00,Wunderground v.1.15,2013-01-09 16:10:00,
2013-01-09 10:15:00,37.7,28.1,30.19,SW,229,5.0,8.0,68,0.00,,,0.00,Wunderground v.1.15,2013-01-09 16:15:00,
2013-01-09 10:20:00,37.9,27.9,30.19,West,267,5.0,14.0,67,0.00,,,0.00,Wunderground v.1.15,2013-01-09 16:20:00,
2013-01-09 10:26:00,38.0,27.6,30.19,WNW,286,9.0,10.0,66,0.00,,,0.00,Wunderground v.1.15,2013-01-09 16:26:00,
2013-01-09 10:31:00,38.0,27.3,30.20,WSW,246,3.0,11.0,65,0.00,,,0.00,Wunderground v.1.15,2013-01-09 16:31:00,
2013-01-09 10:36:00,38.2,27.5,30.20,NW,312,1.0,15.0,65,0.00,,,0.00,Wunderground v.1.15,2013-01-09 16:36:00,
2013-01-09 10:42:00,38.2,27.5,30.20,WSW,258,6.0,6.0,65,0.00,,,0.00,Wunderground v.1.15,2013-01-09 16:42:00,
2013-01-09 10:48:00,38.1,27.0,30.20,WNW,283,1.0,14.0,64,0.00,,,0.00,Wunderground v.1.15,2013-01-09 16:48:00,
2013-01-09 10:53:00,38.1,27.0,30.21,WSW,250,4.0,11.0,64,0.00,,,0.00,Wunderground v.1.15,2013-01-09 16:53:00,
2013-01-09 10:58:00,38.1,27.4,30.21,SW,234,3.0,13.0,65,0.00,,,0.00,Wunderground v.1.15,2013-01-09 16:58:00,
2013-01-09 11:04:00,38.1,27.4,30.20,WSW,252,0.0,10.0,65,0.00,,,0.00,Wunderground v.1.15,2013-01-09 17:04:00,
2013-01-09 11:09:00,38.1,27.0,30.21,WNW,292,3.0,10.0,64,0.00,,,0.00,Wunderground v.1.15,2013-01-09 17:09:00,
2013-01-09 11:14:00,38.0,27.3,30.20,WSW,238,3.0,12.0,65,0.00,,,0.00,Wunderground v.1.15,2013-01-09 17:14:00,
2013-01-09 11:19:00,38.1,27.0,30.21,WSW,257,2.0,12.0,64,0.00,,,0.00,Wunderground v.1.15,2013-01-09 17:19:00,
2013-01-09 11:24:00,38.2,27.1,30.21,West,261,2.0,9.0,64,0.00,,,0.00,Wunderground v.1.15,2013-01-09 17:24:00,
2013-01-09 11:29:00,38.3,27.2,30.21,SW,217,6.0,14.0,64,0.00,,,0.00,Wunderground v.1.15,2013-01-09 17:29:00,
2013-01-09 11:35:00,38.2,27.1,30.21,West,281,5.0,12.0,64,0.00,,,0.00,Wunderground v.1.15,2013-01-09 17:35:00,
2013-01-09 11:41:00,38.4,27.3,30.21,SW,225,7.0,7.0,64,0.00,,,0.00,Wunderground v.1.15,2013-01-09 17:41:00,
2013-01-09 11:46:00,38.6,27.1,30.21,WNW,299,4.0,13.0,63,0.00,,,0.00,Wunderground v.1.15,2013-01-09 17:46:00,
2013-01-09 11:51:00,38.6,27.1,30.22,West,263,6.0,7.0,63,0.00,,,0.00,Wunderground v.1.15,2013-01-09 17:51:00,
2013-01-09 11:56:00,38.6,26.7,30.23,SW,232,4.0,14.0,62,0.00,,,0.00,Wunderground v.1.15,2013-01-09 17:56:00,
2013-01-09 12:02:00,38.8,27.3,30.23,SW,224,10.0,10.0,63,0.00,,,0.00,Wunderground v.1.15,2013-01-09 18:02:00,
2013-01-09 12:07:00,38.6,27.1,30.24,WSW,247,9.0,13.0,63,0.00,,,0.00,Wunderground v.1.15,2013-01-09 18:07:00,
2013-01-09 12:12:00,39.9,29.1,30.24,SW,218,5.0,7.0,65,0.00,,,0.00,Wunderground v.1.15,2013-01-09 18:12:00,
2013-01-09 12:17:00,39.9,28.7,30.24,WSW,248,3.0,15.0,64,0.00,,,0.00,Wunderground v.1.15,2013-01-09 18:17:00,
2013-01-09 12:22:00,39.7,28.5,30.25,WNW,302,8.0,17.0,64,0.00,,,0.00,Wunderground v.1.15,2013-01-09 18:22:00,
2013-01-09 12:27:00,39.5,28.7,30.25,SSW,209,4.0,17.0,65,0.00,,,0.00,Wunderground v.1.15,2013-01-09 18:27:00,
2013-01-09 12:33:00,39.4,29.0,30.25,SW,224,5.0,7.0,66,0.00,,,0.00,Wunderground v.1.15,2013-01-09 18:33:00,
2013-01-09 12:38:00,39.2,28.8,30.25,NNW,327,3.0,17.0,66,0.00,,,0.00,Wunderground v.1.15,2013-01-09 18:38:00,
2013-01-09 12:41:00,39.3,28.9,30.25,WNW,283,7.0,10.0,66,0.00,,,0.00,Wunderground v.1.15,2013-01-09 18:41:00,
2013-01-09 12:42:00,39.3,28.9,30.25,WNW,286,1.0,10.0,66,0.00,,,0.00,Wunderground v.1.15,2013-01-09 18:42:00,
2013-01-09 12:44:00,39.4,29.0,30.25,NW,313,9.0,17.0,66,0.00,,,0.00,Wunderground v.1.15,2013-01-09 18:44:00,
2013-01-09 12:48:00,39.4,28.6,30.25,SW,231,7.0,17.0,65,0.00,,,0.00,Wunderground v.1.15,2013-01-09 18:48:00,
2013-01-09 12:49:00,39.4,28.6,30.25,SSE,153,2.0,17.0,65,0.00,,,0.00,Wunderground v.1.15,2013-01-09 18:49:00,
2013-01-09 12:54:00,39.5,29.1,30.26,NW,315,5.0,13.0,66,0.00,,,0.00,Wunderground v.1.15,2013-01-09 18:54:00,
2013-01-09 12:59:00,39.6,28.8,30.26,SE,138,4.0,13.0,65,0.00,,,0.00,Wunderground v.1.15,2013-01-09 18:59:00,
2013-01-09 13:04:00,39.5,28.3,30.26,NW,311,10.0,18.0,64,0.00,,,0.00,Wunderground v.1.15,2013-01-09 19:04:00,
2013-01-09 13:10:00,39.7,28.9,30.26,NNW,337,4.0,4.0,65,0.00,,,0.00,Wunderground v.1.15,2013-01-09 19:10:00,
2013-01-09 13:15:00,39.5,28.7,30.27,WNW,300,7.0,15.0,65,0.00,,,0.00,Wunderground v.1.15,2013-01-09 19:15:00,
2013-01-09 13:20:00,39.1,28.7,30.27,WNW,300,10.0,10.0,66,0.00,,,0.00,Wunderground v.1.15,2013-01-09 19:20:00,
2013-01-09 13:26:00,39.2,29.2,30.27,WNW,297,5.0,12.0,67,0.00,,,0.00,Wunderground v.1.15,2013-01-09 19:26:00,
2013-01-09 13:31:00,39.1,28.7,30.27,WSW,248,11.0,11.0,66,0.00,,,0.00,Wunderground v.1.15,2013-01-09 19:31:00,
2013-01-09 13:36:00,39.0,28.6,30.28,SW,223,2.0,16.0,66,0.00,,,0.00,Wunderground v.1.15,2013-01-09 19:36:00,
2013-01-09 13:41:00,39.0,28.6,30.28,West,265,3.0,12.0,66,0.00,,,0.00,Wunderground v.1.15,2013-01-09 19:41:00,
2013-01-09 13:46:00,38.7,28.7,30.29,NW,312,14.0,18.0,67,0.00,,,0.00,Wunderground v.1.15,2013-01-09 19:46:00,
2013-01-09 13:51:00,38.7,28.3,30.28,West,267,3.0,14.0,66,0.00,,,0.00,Wunderground v.1.15,2013-01-09 19:51:00,
2013-01-09 13:56:00,38.8,28.8,30.29,WNW,302,15.0,15.0,67,0.00,,,0.00,Wunderground v.1.15,2013-01-09 19:56:00,
2013-01-09 14:01:00,38.8,28.4,30.30,NW,309,4.0,8.0,66,0.00,,,0.00,Wunderground v.1.15,2013-01-09 20:01:00,
2013-01-09 14:06:00,39.0,29.0,30.30,NW,317,10.0,14.0,67,0.00,,,0.00,Wunderground v.1.15,2013-01-09 20:06:00,
2013-01-09 14:11:00,38.9,28.5,30.30,WSW,242,6.0,16.0,66,0.00,,,0.00,Wunderground v.1.15,2013-01-09 20:11:00,
2013-01-09 14:16:00,38.9,28.5,30.31,SW,225,3.0,17.0,66,0.00,,,0.00,Wunderground v.1.15,2013-01-09 20:16:00,
2013-01-09 14:21:00,38.9,28.5,30.31,West,265,10.0,15.0,66,0.00,,,0.00,Wunderground v.1.15,2013-01-09 20:21:00,
2013-01-09 14:26:00,39.0,29.0,30.31,WNW,290,10.0,17.0,67,0.00,,,0.00,Wunderground v.1.15,2013-01-09 20:26:00,
2013-01-09 14:31:00,38.8,28.4,30.31,NW,319,16.0,17.0,66,0.00,,,0.00,Wunderground v.1.15,2013-01-09 20:31:00,
2013-01-09 14:36:00,38.6,28.2,30.31,WNW,294,2.0,18.0,66,0.00,,,0.00,Wunderground v.1.15,2013-01-09 20:36:00,
2013-01-09 14:42:00,38.4,28.4,30.32,NW,316,7.0,10.0,67,0.00,,,0.00,Wunderground v.1.15,2013-01-09 20:42:00,
2013-01-09 14:47:00,38.5,28.1,30.32,WNW,293,14.0,22.0,66,0.00,,,0.00,Wunderground v.1.15,2013-01-09 20:47:00,
2013-01-09 14:52:00,38.3,28.3,30.32,NW,318,10.0,17.0,67,0.00,,,0.00,Wunderground v.1.15,2013-01-09 20:52:00,
2013-01-09 14:57:00,38.3,28.3,30.32,NW,319,3.0,17.0,67,0.00,,,0.00,Wunderground v.1.15,2013-01-09 20:57:00,
2013-01-09 15:02:00,38.3,28.3,30.33,WNW,293,6.0,15.0,67,0.00,,,0.00,Wunderground v.1.15,2013-01-09 21:02:00,
2013-01-09 15:07:00,38.0,28.4,30.33,WNW,289,10.0,15.0,68,0.00,,,0.00,Wunderground v.1.15,2013-01-09 21:07:00,
2013-01-09 15:13:00,37.9,28.3,30.33,WNW,301,9.0,17.0,68,0.00,,,0.00,Wunderground v.1.15,2013-01-09 21:13:00,
2013-01-09 15:18:00,37.7,28.4,30.34,WNW,295,6.0,17.0,69,0.00,,,0.00,Wunderground v.1.15,2013-01-09 21:18:00,
2013-01-09 15:23:00,37.6,28.3,30.35,WSW,252,2.0,14.0,69,0.00,,,0.00,Wunderground v.1.15,2013-01-09 21:23:00,
2013-01-09 15:28:00,37.6,28.3,30.35,WNW,294,9.0,19.0,69,0.00,,,0.00,Wunderground v.1.15,2013-01-09 21:28:00,
2013-01-09 15:33:00,37.6,28.3,30.36,NW,313,5.0,20.0,69,0.00,,,0.00,Wunderground v.1.15,2013-01-09 21:33:00,
2013-01-09 15:39:00,37.3,27.3,30.36,West,260,2.0,20.0,67,0.00,,,0.00,Wunderground v.1.15,2013-01-09 21:39:00,
2013-01-09 15:45:00,37.1,27.2,30.35,West,261,3.0,12.0,67,0.00,,,0.00,Wunderground v.1.15,2013-01-09 21:45:00,
2013-01-09 15:50:00,37.0,27.4,30.35,West,271,2.0,5.0,68,0.00,,,0.00,Wunderground v.1.15,2013-01-09 21:50:00,
2013-01-09 15:55:00,36.9,27.3,30.36,West,259,6.0,9.0,68,0.00,,,0.00,Wunderground v.1.15,2013-01-09 21:55:00,
2013-01-09 16:01:00,36.6,27.4,30.36,WSW,258,2.0,3.0,69,0.00,,,0.00,Wunderground v.1.15,2013-01-09 22:01:00,
2013-01-09 16:06:00,36.2,27.0,30.36,West,271,3.0,6.0,69,0.00,,,0.00,Wunderground v.1.15,2013-01-09 22:06:00,
2013-01-09 16:11:00,36.0,26.8,30.35,WSW,240,3.0,4.0,69,0.00,,,0.00,Wunderground v.1.15,2013-01-09 22:11:00,
2013-01-09 16:17:00,35.8,27.0,30.36,WSW,244,1.0,5.0,70,0.00,,,0.00,Wunderground v.1.15,2013-01-09 22:17:00,
2013-01-09 16:22:00,35.5,26.7,30.36,WSW,244,0.0,2.0,70,0.00,,,0.00,Wunderground v.1.15,2013-01-09 22:22:00,
2013-01-09 16:27:00,35.3,26.5,30.36,WSW,252,2.0,7.0,70,0.00,,,0.00,Wunderground v.1.15,2013-01-09 22:27:00,
2013-01-09 16:31:00,35.3,26.5,30.38,WSW,254,2.0,5.0,70,0.00,,,0.00,Wunderground v.1.15,2013-01-09 22:31:00,
2013-01-09 16:36:00,35.2,26.7,30.39,SW,233,4.0,9.0,71,0.00,,,0.00,Wunderground v.1.15,2013-01-09 22:36:00,
2013-01-09 16:42:00,35.1,26.6,30.40,WSW,257,2.0,2.0,71,0.00,,,0.00,Wunderground v.1.15,2013-01-09 22:42:00,
2013-01-09 16:47:00,34.9,26.4,30.39,WSW,249,1.0,6.0,71,0.00,,,0.00,Wunderground v.1.15,2013-01-09 22:47:00,
2013-01-09 16:53:00,34.7,26.6,30.39,WSW,256,0.0,4.0,72,0.00,,,0.00,Wunderground v.1.15,2013-01-09 22:53:00,
2013-01-09 16:58:00,34.4,26.3,30.39,WSW,257,0.0,4.0,72,0.00,,,0.00,Wunderground v.1.15,2013-01-09 22:58:00,
2013-01-09 17:03:00,34.4,26.3,30.40,WSW,257,0.0,3.0,72,0.00,,,0.00,Wunderground v.1.15,2013-01-09 23:03:00,
2013-01-09 17:08:00,34.1,26.0,30.40,WSW,256,0.0,3.0,72,0.00,,,0.00,Wunderground v.1.15,2013-01-09 23:08:00,
2013-01-09 17:13:00,33.9,26.2,30.40,WSW,257,0.0,1.0,73,0.00,,,0.00,Wunderground v.1.15,2013-01-09 23:13:00,
2013-01-09 17:19:00,33.6,25.9,30.40,WSW,257,1.0,1.0,73,0.00,,,0.00,Wunderground v.1.15,2013-01-09 23:19:00,
2013-01-09 17:24:00,33.4,26.0,30.40,WSW,257,0.0,1.0,74,0.00,,,0.00,Wunderground v.1.15,2013-01-09 23:24:00,
2013-01-09 17:29:00,33.2,25.8,30.40,WSW,256,0.0,1.0,74,0.00,,,0.00,Wunderground v.1.15,2013-01-09 23:29:00,
2013-01-09 17:34:00,33.3,25.6,30.41,WSW,245,0.0,4.0,73,0.00,,,0.00,Wunderground v.1.15,2013-01-09 23:34:00,
2013-01-09 17:39:00,33.4,25.7,30.41,WSW,245,0.0,4.0,73,0.00,,,0.00,Wunderground v.1.15,2013-01-09 23:39:00,
2013-01-09 17:44:00,33.3,25.2,30.41,WSW,245,0.0,0.0,72,0.00,,,0.00,Wunderground v.1.15,2013-01-09 23:44:00,
2013-01-09 17:49:00,33.3,25.2,30.42,WSW,245,0.0,1.0,72,0.00,,,0.00,Wunderground v.1.15,2013-01-09 23:49:00,
2013-01-09 17:55:00,33.4,25.3,30.42,WSW,245,0.0,0.0,72,0.00,,,0.00,Wunderground v.1.15,2013-01-09 23:55:00,
2013-01-09 18:00:00,33.3,24.9,30.43,WSW,245,0.0,0.0,71,0.00,,,0.00,Wunderground v.1.15,2013-01-10 00:00:00,
2013-01-09 18:06:00,33.2,24.8,30.44,WSW,245,0.0,2.0,71,0.00,,,0.00,Wunderground v.1.15,2013-01-10 00:06:00,
2013-01-09 18:11:00,33.0,24.6,30.44,WSW,245,0.0,0.0,71,0.00,,,0.00,Wunderground v.1.15,2013-01-10 00:11:00,
2013-01-09 18:16:00,32.9,24.5,30.44,WSW,245,0.0,0.0,71,0.00,,,0.00,Wunderground v.1.15,2013-01-10 00:16:00,
2013-01-09 18:22:00,32.8,24.4,30.44,WSW,245,0.0,0.0,71,0.00,,,0.00,Wunderground v.1.15,2013-01-10 00:22:00,
2013-01-09 18:27:00,32.7,24.3,30.44,WSW,245,0.0,1.0,71,0.00,,,0.00,Wunderground v.1.15,2013-01-10 00:27:00,
2013-01-09 18:32:00,32.6,24.2,30.44,WSW,245,0.0,0.0,71,0.00,,,0.00,Wunderground v.1.15,2013-01-10 00:32:00,
2013-01-09 18:37:00,32.5,24.1,30.44,WSW,245,0.0,0.0,71,0.00,,,0.00,Wunderground v.1.15,2013-01-10 00:37:00,
2013-01-09 18:42:00,32.2,23.8,30.45,WSW,245,0.0,0.0,71,0.00,,,0.00,Wunderground v.1.15,2013-01-10 00:42:00,
2013-01-09 18:47:00,31.9,23.9,30.45,WSW,245,0.0,0.0,72,0.00,,,0.00,Wunderground v.1.15,2013-01-10 00:47:00,
2013-01-09 18:53:00,31.7,23.7,30.45,WSW,245,0.0,0.0,72,0.00,,,0.00,Wunderground v.1.15,2013-01-10 00:53:00,
2013-01-09 18:58:00,31.5,23.8,30.45,WSW,245,0.0,0.0,73,0.00,,,0.00,Wunderground v.1.15,2013-01-10 00:58:00,
2013-01-09 19:03:00,31.4,23.7,30.46,WSW,245,0.0,0.0,73,0.00,,,0.00,Wunderground v.1.15,2013-01-10 01:03:00,
2013-01-09 19:08:00,31.2,23.5,30.46,WSW,245,0.0,0.0,73,0.00,,,0.00,Wunderground v.1.15,2013-01-10 01:08:00,
2013-01-09 19:13:00,31.4,23.7,30.46,WSW,245,0.0,1.0,73,0.00,,,0.00,Wunderground v.1.15,2013-01-10 01:13:00,
2013-01-09 19:18:00,31.6,23.9,30.46,WSW,245,0.0,1.0,73,0.00,,,0.00,Wunderground v.1.15,2013-01-10 01:18:00,
2013-01-09 19:23:00,31.6,23.9,30.47,WSW,245,0.0,1.0,73,0.00,,,0.00,Wunderground v.1.15,2013-01-10 01:23:00,
2013-01-09 19:28:00,31.5,23.8,30.48,WSW,245,0.0,1.0,73,0.00,,,0.00,Wunderground v.1.15,2013-01-10 01:28:00,
2013-01-09 19:34:00,30.9,23.3,30.48,WSW,245,0.0,1.0,73,0.00,,,0.00,Wunderground v.1.15,2013-01-10 01:34:00,
2013-01-09 19:39:00,30.5,23.5,30.48,WSW,245,0.0,1.0,75,0.00,,,0.00,Wunderground v.1.15,2013-01-10 01:39:00,
2013-01-09 19:44:00,30.5,23.8,30.49,WSW,245,0.0,1.0,76,0.00,,,0.00,Wunderground v.1.15,2013-01-10 01:44:00,
2013-01-09 19:50:00,30.6,23.9,30.48,WSW,245,0.0,1.0,76,0.00,,,0.00,Wunderground v.1.15,2013-01-10 01:50:00,
2013-01-09 19:55:00,30.6,23.9,30.49,WSW,245,0.0,0.0,76,0.00,,,0.00,Wunderground v.1.15,2013-01-10 01:55:00,
2013-01-09 20:00:00,30.5,23.8,30.49,WSW,245,0.0,0.0,76,0.00,,,0.00,Wunderground v.1.15,2013-01-10 02:00:00,
2013-01-09 20:05:00,30.3,23.6,30.48,WSW,245,0.0,0.0,76,0.00,,,0.00,Wunderground v.1.15,2013-01-10 02:05:00,
2013-01-09 20:10:00,30.1,23.8,30.48,WSW,245,0.0,0.0,77,0.00,,,0.00,Wunderground v.1.15,2013-01-10 02:10:00,
2013-01-09 20:15:00,27.0,22.5,30.48,SW,225,0.0,0.0,83,0.00,,,0.00,Wunderground v.1.15,2013-01-10 02:15:00,
2013-01-09 20:20:00,27.0,22.8,30.48,SW,225,0.0,0.0,84,0.00,,,0.00,Wunderground v.1.15,2013-01-10 02:20:00,
2013-01-09 20:26:00,26.7,22.5,30.48,SW,225,0.0,0.0,84,0.00,,,0.00,Wunderground v.1.15,2013-01-10 02:26:00,
2013-01-09 20:31:00,26.7,22.8,30.48,SW,225,0.0,0.0,85,0.00,,,0.00,Wunderground v.1.15,2013-01-10 02:31:00,
2013-01-09 20:36:00,26.7,22.8,30.48,SW,225,0.0,0.0,85,0.00,,,0.00,Wunderground v.1.15,2013-01-10 02:36:00,
2013-01-09 20:41:00,26.5,22.3,30.48,SW,225,0.0,0.0,84,0.00,,,0.00,Wunderground v.1.15,2013-01-10 02:41:00,
2013-01-09 20:46:00,26.1,21.9,30.48,SW,225,0.0,0.0,84,0.00,,,0.00,Wunderground v.1.15,2013-01-10 02:46:00,
2013-01-09 20:53:00,25.8,21.9,30.48,SW,225,0.0,0.0,85,0.00,,,0.00,Wunderground v.1.15,2013-01-10 02:53:00,
2013-01-09 20:58:00,25.9,22.3,30.48,SW,225,0.0,0.0,86,0.00,,,0.00,Wunderground v.1.15,2013-01-10 02:58:00,
2013-01-09 21:03:00,26.0,22.4,30.48,SW,225,0.0,0.0,86,0.00,,,0.00,Wunderground v.1.15,2013-01-10 03:03:00,
2013-01-09 21:08:00,25.7,22.1,30.48,SW,225,0.0,0.0,86,0.00,,,0.00,Wunderground v.1.15,2013-01-10 03:08:00,
2013-01-09 21:13:00,25.3,21.7,30.48,SW,225,0.0,0.0,86,0.00,,,0.00,Wunderground v.1.15,2013-01-10 03:13:00,
2013-01-09 21:18:00,24.9,21.3,30.47,SW,225,0.0,0.0,86,0.00,,,0.00,Wunderground v.1.15,2013-01-10 03:18:00,
2013-01-09 21:24:00,24.7,21.4,30.47,SSE,152,1.0,1.0,87,0.00,,,0.00,Wunderground v.1.15,2013-01-10 03:24:00,
2013-01-09 21:29:00,24.9,21.8,30.46,ENE,63,0.0,2.0,88,0.00,,,0.00,Wunderground v.1.15,2013-01-10 03:29:00,
2013-01-09 21:34:00,25.3,22.5,30.46,ENE,61,0.0,2.0,89,0.00,,,0.00,Wunderground v.1.15,2013-01-10 03:34:00,
2013-01-09 21:39:00,25.4,22.3,30.46,ENE,61,0.0,2.0,88,0.00,,,0.00,Wunderground v.1.15,2013-01-10 03:39:00,
2013-01-09 21:44:00,25.2,22.1,30.46,ENE,61,1.0,1.0,88,0.00,,,0.00,Wunderground v.1.15,2013-01-10 03:44:00,
2013-01-09 21:50:00,24.2,20.6,30.46,ENE,62,0.0,0.0,86,0.00,,,0.00,Wunderground v.1.15,2013-01-10 03:50:00,
2013-01-09 21:55:00,23.7,20.4,30.46,ENE,62,0.0,0.0,87,0.00,,,0.00,Wunderground v.1.15,2013-01-10 03:55:00,
2013-01-09 22:00:00,23.4,20.1,30.46,ENE,62,0.0,0.0,87,0.00,,,0.00,Wunderground v.1.15,2013-01-10 04:00:00,
2013-01-09 22:06:00,23.3,20.3,30.45,ENE,62,0.0,0.0,88,0.00,,,0.00,Wunderground v.1.15,2013-01-10 04:06:00,
2013-01-09 22:12:00,23.2,20.2,30.45,ENE,62,1.0,1.0,88,0.00,,,0.00,Wunderground v.1.15,2013-01-10 04:12:00,
2013-01-09 22:17:00,22.9,19.9,30.46,ENE,62,0.0,1.0,88,0.00,,,0.00,Wunderground v.1.15,2013-01-10 04:17:00,
2013-01-09 22:22:00,22.6,19.8,30.45,ENE,62,0.0,0.0,89,0.00,,,0.00,Wunderground v.1.15,2013-01-10 04:22:00,
2013-01-09 22:27:00,22.5,19.7,30.45,ENE,62,0.0,0.0,89,0.00,,,0.00,Wunderground v.1.15,2013-01-10 04:27:00,
2013-01-09 22:32:00,22.4,19.6,30.44,ENE,62,0.0,0.0,89,0.00,,,0.00,Wunderground v.1.15,2013-01-10 04:32:00,
2013-01-09 22:37:00,22.4,19.6,30.44,ENE,62,0.0,0.0,89,0.00,,,0.00,Wunderground v.1.15,2013-01-10 04:37:00,
2013-01-09 22:43:00,22.4,19.9,30.44,ENE,62,0.0,1.0,90,0.00,,,0.00,Wunderground v.1.15,2013-01-10 04:43:00,
2013-01-09 22:48:00,22.2,19.7,30.45,ENE,62,0.0,1.0,90,0.00,,,0.00,Wunderground v.1.15,2013-01-10 04:48:00,
2013-01-09 22:53:00,22.0,19.5,30.45,ENE,62,1.0,1.0,90,0.00,,,0.00,Wunderground v.1.15,2013-01-10 04:53:00,
2013-01-09 22:58:00,22.3,20.1,30.45,ENE,62,1.0,3.0,91,0.00,,,0.00,Wunderground v.1.15,2013-01-10 04:58:00,
2013-01-09 23:00:00,22.4,20.2,30.45,ENE,62,1.0,3.0,91,0.00,,,0.00,Wunderground v.1.15,2013-01-10 05:00:00,
2013-01-09 23:01:00,22.4,20.2,30.45,ENE,62,1.0,2.0,91,0.00,,,0.00,Wunderground v.1.15,2013-01-10 05:01:00,
2013-01-09 23:02:00,22.4,20.2,30.45,ENE,62,1.0,2.0,91,0.00,,,0.00,Wunderground v.1.15,2013-01-10 05:02:00,
2013-01-09 23:07:00,22.5,20.3,30.46,ENE,62,0.0,2.0,91,0.00,,,0.00,Wunderground v.1.15,2013-01-10 05:07:00,
2013-01-09 23:12:00,22.4,20.2,30.46,ENE,62,0.0,1.0,91,0.00,,,0.00,Wunderground v.1.15,2013-01-10 05:12:00,
2013-01-09 23:17:00,22.2,20.0,30.46,ENE,62,0.0,1.0,91,0.00,,,0.00,Wunderground v.1.15,2013-01-10 05:17:00,
2013-01-09 23:22:00,22.2,20.0,30.47,ENE,62,0.0,1.0,91,0.00,,,0.00,Wunderground v.1.15,2013-01-10 05:22:00,
2013-01-09 23:28:00,22.0,19.8,30.48,SW,225,0.0,2.0,91,0.00,,,0.00,Wunderground v.1.15,2013-01-10 05:28:00,
2013-01-09 23:34:00,22.0,19.8,30.49,SW,223,3.0,3.0,91,0.00,,,0.00,Wunderground v.1.15,2013-01-10 05:34:00,
2013-01-09 23:39:00,23.6,21.9,30.49,SW,236,8.0,8.0,93,0.00,,,0.00,Wunderground v.1.15,2013-01-10 05:39:00,
2013-01-09 23:44:00,24.7,23.0,30.49,SW,232,5.0,9.0,93,0.00,,,0.00,Wunderground v.1.15,2013-01-10 05:44:00,
2013-01-09 23:49:00,25.3,23.0,30.49,SW,232,3.0,9.0,91,0.00,,,0.00,Wunderground v.1.15,2013-01-10 05:49:00,
2013-01-09 23:54:00,25.4,22.9,30.50,SW,227,4.0,5.0,90,0.00,,,0.00,Wunderground v.1.15,2013-01-10 05:54:00,
2013-01-09 23:59:00,25.3,22.5,30.51,SW,227,3.0,5.0,89,0.00,,,0.00,Wunderground v.1.15,2013-01-10 05:59:00,